sensor_id;sensor_type;location;lat;lon;timestamp;pressure;altitude;pressure_sealevel;temperature;humidity
42591;BME280;28218;53.342;-6.216;2023-05-29T00:00:58;102881.28;;;14.80;100.00
42591;BME280;28218;53.342;-6.216;2023-05-29T00:03:27;102875.59;;;14.75;100.00
42591;BME280;28218;53.342;-6.216;2023-05-29T00:06:03;102880.88;;;14.75;100.00
42591;BME280;28218;53.342;-6.216;2023-05-29T00:08:32;102875.84;;;14.72;100.00
42591;BME280;28218;53.342;-6.216;2023-05-29T00:11:00;102882.88;;;14.73;100.00
42591;BME280;28218;53.342;-6.216;2023-05-29T00:13:29;102877.56;;;14.73;100.00
42591;BME280;28218;53.342;-6.216;2023-05-29T00:15:57;102872.25;;;14.73;100.00
42591;BME280;28218;53.342;-6.216;2023-05-29T00:18:27;102878.38;;;14.73;100.00
42591;BME280;28218;53.342;-6.216;2023-05-29T00:20:55;102886.47;;;14.72;100.00
42591;BME280;28218;53.342;-6.216;2023-05-29T00:23:26;102879.50;;;14.71;100.00
42591;BME280;28218;53.342;-6.216;2023-05-29T00:25:54;102889.28;;;14.70;100.00
42591;BME280;28218;53.342;-6.216;2023-05-29T00:28:22;102885.06;;;14.68;100.00
42591;BME280;28218;53.342;-6.216;2023-05-29T00:30:50;102883.56;;;14.65;100.00
42591;BME280;28218;53.342;-6.216;2023-05-29T00:33:19;102886.38;;;14.64;100.00
42591;BME280;28218;53.342;-6.216;2023-05-29T00:35:47;102895.00;;;14.66;100.00
42591;BME280;28218;53.342;-6.216;2023-05-29T00:38:16;102892.63;;;14.63;100.00
42591;BME280;28218;53.342;-6.216;2023-05-29T00:40:47;102888.72;;;14.57;100.00
42591;BME280;28218;53.342;-6.216;2023-05-29T00:43:15;102886.50;;;14.52;100.00
42591;BME280;28218;53.342;-6.216;2023-05-29T00:45:43;102882.34;;;14.50;100.00
42591;BME280;28218;53.342;-6.216;2023-05-29T00:48:12;102893.19;;;14.47;100.00
42591;BME280;28218;53.342;-6.216;2023-05-29T00:50:40;102888.31;;;14.42;100.00
42591;BME280;28218;53.342;-6.216;2023-05-29T00:53:08;102889.13;;;14.43;100.00
42591;BME280;28218;53.342;-6.216;2023-05-29T00:55:37;102892.22;;;14.38;100.00
42591;BME280;28218;53.342;-6.216;2023-05-29T00:58:07;102891.78;;;14.33;100.00
42591;BME280;28218;53.342;-6.216;2023-05-29T01:00:35;102893.75;;;14.31;100.00
42591;BME280;28218;53.342;-6.216;2023-05-29T01:03:06;102892.06;;;14.30;100.00
42591;BME280;28218;53.342;-6.216;2023-05-29T01:05:35;102898.50;;;14.37;100.00
42591;BME280;28218;53.342;-6.216;2023-05-29T01:08:03;102892.06;;;14.30;100.00
42591;BME280;28218;53.342;-6.216;2023-05-29T01:10:32;102894.72;;;14.30;100.00
42591;BME280;28218;53.342;-6.216;2023-05-29T01:13:05;102893.19;;;14.37;100.00
42591;BME280;28218;53.342;-6.216;2023-05-29T01:15:41;102887.06;;;14.37;100.00
42591;BME280;28218;53.342;-6.216;2023-05-29T01:18:30;102893.59;;;14.32;100.00
42591;BME280;28218;53.342;-6.216;2023-05-29T01:21:03;102894.88;;;14.28;100.00
42591;BME280;28218;53.342;-6.216;2023-05-29T01:23:52;102897.66;;;14.27;100.00
42591;BME280;28218;53.342;-6.216;2023-05-29T01:26:34;102893.75;;;14.21;100.00
42591;BME280;28218;53.342;-6.216;2023-05-29T01:29:06;102889.56;;;14.19;100.00
42591;BME280;28218;53.342;-6.216;2023-05-29T01:31:37;102885.66;;;14.23;100.00
42591;BME280;28218;53.342;-6.216;2023-05-29T01:34:05;102887.88;;;14.18;100.00
42591;BME280;28218;53.342;-6.216;2023-05-29T01:36:33;102881.88;;;14.16;100.00
42591;BME280;28218;53.342;-6.216;2023-05-29T01:39:02;102884.53;;;14.16;100.00
42591;BME280;28218;53.342;-6.216;2023-05-29T01:41:31;102890.53;;;14.18;100.00
42591;BME280;28218;53.342;-6.216;2023-05-29T01:44:05;102886.50;;;14.14;100.00
42591;BME280;28218;53.342;-6.216;2023-05-29T01:46:36;102884.25;;;14.09;100.00
42591;BME280;28218;53.342;-6.216;2023-05-29T01:49:04;102876.16;;;14.01;100.00
42591;BME280;28218;53.342;-6.216;2023-05-29T01:51:33;102877.69;;;14.03;100.00
42591;BME280;28218;53.342;-6.216;2023-05-29T01:54:02;102873.63;;;13.99;100.00
42591;BME280;28218;53.342;-6.216;2023-05-29T01:56:30;102883.00;;;14.03;100.00
42591;BME280;28218;53.342;-6.216;2023-05-29T01:59:02;102883.00;;;14.03;100.00
42591;BME280;28218;53.342;-6.216;2023-05-29T02:01:31;102882.16;;;14.03;100.00
42591;BME280;28218;53.342;-6.216;2023-05-29T02:04:00;102887.31;;;14.04;100.00
42591;BME280;28218;53.342;-6.216;2023-05-29T02:06:28;102891.06;;;14.02;100.00
42591;BME280;28218;53.342;-6.216;2023-05-29T02:08:57;102887.72;;;14.00;100.00
42591;BME280;28218;53.342;-6.216;2023-05-29T02:11:26;102882.28;;;14.01;100.00
42591;BME280;28218;53.342;-6.216;2023-05-29T02:13:54;102883.13;;;14.02;100.00
42591;BME280;28218;53.342;-6.216;2023-05-29T02:16:24;102881.59;;;13.99;100.00
42591;BME280;28218;53.342;-6.216;2023-05-29T02:18:54;102889.13;;;14.04;100.00
42591;BME280;28218;53.342;-6.216;2023-05-29T02:21:24;102887.59;;;14.01;100.00
42591;BME280;28218;53.342;-6.216;2023-05-29T02:23:52;102880.34;;;14.03;100.00
42591;BME280;28218;53.342;-6.216;2023-05-29T02:26:20;102885.66;;;14.03;100.00
42591;BME280;28218;53.342;-6.216;2023-05-29T02:28:49;102880.63;;;14.00;100.00
42591;BME280;28218;53.342;-6.216;2023-05-29T02:31:17;102876.97;;;14.01;100.00
42591;BME280;28218;53.342;-6.216;2023-05-29T02:33:47;102876.28;;;13.99;100.00
42591;BME280;28218;53.342;-6.216;2023-05-29T02:36:16;102878.25;;;13.97;100.00
42591;BME280;28218;53.342;-6.216;2023-05-29T02:38:44;102878.09;;;13.99;100.00
42591;BME280;28218;53.342;-6.216;2023-05-29T02:41:12;102874.63;;;13.98;100.00
42591;BME280;28218;53.342;-6.216;2023-05-29T02:43:41;102871.97;;;13.98;100.00
42591;BME280;28218;53.342;-6.216;2023-05-29T02:46:09;102877.28;;;13.98;100.00
42591;BME280;28218;53.342;-6.216;2023-05-29T02:48:37;102870.00;;;14.00;100.00
42591;BME280;28218;53.342;-6.216;2023-05-29T02:51:07;102877.81;;;14.02;100.00
42591;BME280;28218;53.342;-6.216;2023-05-29T02:53:35;102873.91;;;13.96;100.00
42591;BME280;28218;53.342;-6.216;2023-05-29T02:56:03;102876.16;;;14.01;100.00
42591;BME280;28218;53.342;-6.216;2023-05-29T02:58:32;102871.00;;;13.99;100.00
42591;BME280;28218;53.342;-6.216;2023-05-29T03:01:02;102869.44;;;13.97;100.00
42591;BME280;28218;53.342;-6.216;2023-05-29T03:03:30;102871.13;;;13.98;100.00
42591;BME280;28218;53.342;-6.216;2023-05-29T03:05:59;102867.34;;;14.00;100.00
42591;BME280;28218;53.342;-6.216;2023-05-29T03:08:28;102868.06;;;14.02;100.00
42591;BME280;28218;53.342;-6.216;2023-05-29T03:10:57;102870.00;;;14.00;100.00
42591;BME280;28218;53.342;-6.216;2023-05-29T03:13:26;102880.63;;;14.00;100.00
42591;BME280;28218;53.342;-6.216;2023-05-29T03:15:54;102875.31;;;14.00;100.00
42591;BME280;28218;53.342;-6.216;2023-05-29T03:18:24;102876.97;;;14.01;100.00
42591;BME280;28218;53.342;-6.216;2023-05-29T03:20:53;102871.25;;;13.96;100.00
42591;BME280;28218;53.342;-6.216;2023-05-29T03:23:22;102876.84;;;13.93;100.00
42591;BME280;28218;53.342;-6.216;2023-05-29T03:25:54;102881.03;;;13.96;100.00
42591;BME280;28218;53.342;-6.216;2023-05-29T03:28:22;102869.16;;;13.90;100.00
42591;BME280;28218;53.342;-6.216;2023-05-29T03:30:50;102874.72;;;13.87;100.00
42591;BME280;28218;53.342;-6.216;2023-05-29T03:33:19;102873.06;;;13.86;100.00
42591;BME280;28218;53.342;-6.216;2023-05-29T03:35:48;102877.53;;;13.86;100.00
42591;BME280;28218;53.342;-6.216;2023-05-29T03:38:16;102873.91;;;13.87;100.00
42591;BME280;28218;53.342;-6.216;2023-05-29T03:40:44;102866.34;;;13.82;100.00
42591;BME280;28218;53.342;-6.216;2023-05-29T03:43:13;102868.31;;;13.80;100.00
42591;BME280;28218;53.342;-6.216;2023-05-29T03:45:42;102870.25;;;13.78;100.00
42591;BME280;28218;53.342;-6.216;2023-05-29T03:48:10;102869.72;;;13.74;100.00
42591;BME280;28218;53.342;-6.216;2023-05-29T03:50:38;102868.88;;;13.74;100.00
42591;BME280;28218;53.342;-6.216;2023-05-29T03:53:06;102870.66;;;13.73;100.00
42591;BME280;28218;53.342;-6.216;2023-05-29T03:55:34;102871.06;;;13.69;100.00
42591;BME280;28218;53.342;-6.216;2023-05-29T03:58:03;102870.94;;;13.70;100.00
42591;BME280;28218;53.342;-6.216;2023-05-29T04:00:32;102870.81;;;13.72;100.00
42591;BME280;28218;53.342;-6.216;2023-05-29T04:03:00;102876.38;;;13.69;100.00
42591;BME280;28218;53.342;-6.216;2023-05-29T04:05:29;102878.31;;;13.67;100.00
42591;BME280;28218;53.342;-6.216;2023-05-29T04:07:57;102869.53;;;13.66;100.00
42591;BME280;28218;53.342;-6.216;2023-05-29T04:10:40;102872.44;;;13.63;100.00
42591;BME280;28218;53.342;-6.216;2023-05-29T04:13:08;102864.50;;;13.63;100.00
42591;BME280;28218;53.342;-6.216;2023-05-29T04:15:38;102871.22;;;13.67;100.00
42591;BME280;28218;53.342;-6.216;2023-05-29T04:18:06;102872.75;;;13.70;100.00
42591;BME280;28218;53.342;-6.216;2023-05-29T04:20:34;102871.06;;;13.69;100.00
42591;BME280;28218;53.342;-6.216;2023-05-29T04:23:03;102878.06;;;13.70;100.00
42591;BME280;28218;53.342;-6.216;2023-05-29T04:25:31;102885.03;;;13.71;100.00
42591;BME280;28218;53.342;-6.216;2023-05-29T04:27:59;102884.06;;;13.72;100.00
42591;BME280;28218;53.342;-6.216;2023-05-29T04:30:29;102878.75;;;13.72;100.00
42591;BME280;28218;53.342;-6.216;2023-05-29T04:33:01;102888.38;;;13.73;100.00
42591;BME280;28218;53.342;-6.216;2023-05-29T04:35:30;102876.81;;;13.74;100.00
42591;BME280;28218;53.342;-6.216;2023-05-29T04:37:59;102870.41;;;13.76;100.00
42591;BME280;28218;53.342;-6.216;2023-05-29T04:40:27;102877.94;;;13.81;100.00
42591;BME280;28218;53.342;-6.216;2023-05-29T04:42:55;102876.84;;;13.84;100.00
42591;BME280;28218;53.342;-6.216;2023-05-29T04:45:27;102877.53;;;13.86;100.00
42591;BME280;28218;53.342;-6.216;2023-05-29T04:47:56;102879.75;;;13.90;100.00
42591;BME280;28218;53.342;-6.216;2023-05-29T04:50:25;102882.84;;;13.95;100.00
42591;BME280;28218;53.342;-6.216;2023-05-29T04:52:57;102883.69;;;14.05;100.00
42591;BME280;28218;53.342;-6.216;2023-05-29T04:55:26;102887.31;;;14.14;100.00
42591;BME280;28218;53.342;-6.216;2023-05-29T04:57:54;102885.50;;;14.34;100.00
42591;BME280;28218;53.342;-6.216;2023-05-29T05:00:23;102888.16;;;14.53;100.00
42591;BME280;28218;53.342;-6.216;2023-05-29T05:02:52;102888.28;;;14.71;100.00
42591;BME280;28218;53.342;-6.216;2023-05-29T05:05:20;102880.31;;;14.81;100.00
42591;BME280;28218;53.342;-6.216;2023-05-29T05:07:50;102884.63;;;14.92;100.00
42591;BME280;28218;53.342;-6.216;2023-05-29T05:10:18;102879.97;;;15.03;100.00
42591;BME280;28218;53.342;-6.216;2023-05-29T05:12:46;102887.94;;;15.03;100.00
42591;BME280;28218;53.342;-6.216;2023-05-29T05:15:15;102885.56;;;15.00;100.00
42591;BME280;28218;53.342;-6.216;2023-05-29T05:17:43;102887.25;;;15.01;100.00
42591;BME280;28218;53.342;-6.216;2023-05-29T05:20:12;102888.22;;;15.00;100.00
42591;BME280;28218;53.342;-6.216;2023-05-29T05:22:40;102889.75;;;15.03;100.00
42591;BME280;28218;53.342;-6.216;2023-05-29T05:25:10;102889.47;;;15.06;100.00
42591;BME280;28218;53.342;-6.216;2023-05-29T05:27:38;102888.34;;;15.08;100.00
42591;BME280;28218;53.342;-6.216;2023-05-29T05:30:07;102891.94;;;15.17;100.00
42591;BME280;28218;53.342;-6.216;2023-05-29T05:32:36;102892.59;;;15.29;100.00
42591;BME280;28218;53.342;-6.216;2023-05-29T05:35:04;102888.78;;;15.41;100.00
42591;BME280;28218;53.342;-6.216;2023-05-29T05:37:32;102890.78;;;15.57;100.00
42591;BME280;28218;53.342;-6.216;2023-05-29T05:40:00;102894.28;;;15.67;100.00
42591;BME280;28218;53.342;-6.216;2023-05-29T05:42:31;102900.25;;;15.69;100.00
42591;BME280;28218;53.342;-6.216;2023-05-29T05:44:59;102899.28;;;15.70;100.00
42591;BME280;28218;53.342;-6.216;2023-05-29T05:47:27;102896.88;;;15.77;100.00
42591;BME280;28218;53.342;-6.216;2023-05-29T05:49:56;102902.56;;;15.82;100.00
42591;BME280;28218;53.342;-6.216;2023-05-29T05:52:24;102899.00;;;15.91;100.00
42591;BME280;28218;53.342;-6.216;2023-05-29T05:54:53;102895.47;;;16.00;100.00
42591;BME280;28218;53.342;-6.216;2023-05-29T05:57:21;102897.88;;;16.12;100.00
42591;BME280;28218;53.342;-6.216;2023-05-29T05:59:50;102894.59;;;16.18;100.00
42591;BME280;28218;53.342;-6.216;2023-05-29T06:02:18;102895.31;;;16.20;100.00
42591;BME280;28218;53.342;-6.216;2023-05-29T06:04:47;102900.16;;;16.42;100.00
42591;BME280;28218;53.342;-6.216;2023-05-29T06:07:15;102895.44;;;16.72;100.00
42591;BME280;28218;53.342;-6.216;2023-05-29T06:09:44;102889.94;;;16.99;100.00
42591;BME280;28218;53.342;-6.216;2023-05-29T06:12:12;102896.72;;;17.20;100.00
42591;BME280;28218;53.342;-6.216;2023-05-29T06:14:40;102895.66;;;17.47;100.00
42591;BME280;28218;53.342;-6.216;2023-05-29T06:17:10;102897.59;;;17.71;100.00
42591;BME280;28218;53.342;-6.216;2023-05-29T06:19:38;102903.31;;;17.92;100.00
42591;BME280;28218;53.342;-6.216;2023-05-29T06:22:07;102905.00;;;18.01;100.00
42591;BME280;28218;53.342;-6.216;2023-05-29T06:24:35;102905.34;;;18.14;100.00
42591;BME280;28218;53.342;-6.216;2023-05-29T06:27:06;102914.88;;;18.33;100.00
42591;BME280;28218;53.342;-6.216;2023-05-29T06:29:36;102913.38;;;18.39;100.00
42591;BME280;28218;53.342;-6.216;2023-05-29T06:32:04;102922.91;;;18.42;100.00
42591;BME280;28218;53.342;-6.216;2023-05-29T06:34:34;102919.22;;;18.51;100.00
42591;BME280;28218;53.342;-6.216;2023-05-29T06:37:03;102928.41;;;18.56;100.00
42591;BME280;28218;53.342;-6.216;2023-05-29T06:39:31;102926.38;;;18.67;100.00
42591;BME280;28218;53.342;-6.216;2023-05-29T06:42:00;102932.91;;;18.72;100.00
42591;BME280;28218;53.342;-6.216;2023-05-29T06:44:29;102936.09;;;18.76;100.00
42591;BME280;28218;53.342;-6.216;2023-05-29T06:46:57;102943.28;;;18.83;100.00
42591;BME280;28218;53.342;-6.216;2023-05-29T06:49:25;102942.59;;;18.81;100.00
42591;BME280;28218;53.342;-6.216;2023-05-29T06:51:55;102946.63;;;18.69;100.00
42591;BME280;28218;53.342;-6.216;2023-05-29T06:54:23;102953.75;;;18.36;100.00
42591;BME280;28218;53.342;-6.216;2023-05-29T06:56:51;102961.25;;;18.16;100.00
42591;BME280;28218;53.342;-6.216;2023-05-29T06:59:35;102964.88;;;17.99;100.00
42591;BME280;28218;53.342;-6.216;2023-05-29T07:02:04;102962.72;;;18.02;100.00
42591;BME280;28218;53.342;-6.216;2023-05-29T07:04:32;102968.03;;;18.10;100.00
42591;BME280;28218;53.342;-6.216;2023-05-29T07:07:02;102968.88;;;18.11;100.00
42591;BME280;28218;53.342;-6.216;2023-05-29T07:09:30;102973.59;;;18.17;100.00
42591;BME280;28218;53.342;-6.216;2023-05-29T07:11:58;102981.75;;;18.24;100.00
42591;BME280;28218;53.342;-6.216;2023-05-29T07:14:27;102990.78;;;18.31;100.00
42591;BME280;28218;53.342;-6.216;2023-05-29T07:16:55;102992.78;;;18.37;100.00
42591;BME280;28218;53.342;-6.216;2023-05-29T07:19:23;102990.47;;;18.42;100.00
42591;BME280;28218;53.342;-6.216;2023-05-29T07:21:52;102989.13;;;18.38;100.00
42591;BME280;28218;53.342;-6.216;2023-05-29T07:24:21;102992.63;;;18.30;100.00
42591;BME280;28218;53.342;-6.216;2023-05-29T07:26:49;102989.09;;;18.22;100.00
42591;BME280;28218;53.342;-6.216;2023-05-29T07:29:17;102986.56;;;18.20;100.00
42591;BME280;28218;53.342;-6.216;2023-05-29T07:31:47;102982.59;;;18.16;100.00
42591;BME280;28218;53.342;-6.216;2023-05-29T07:34:16;102977.88;;;18.10;100.00
42591;BME280;28218;53.342;-6.216;2023-05-29T07:37:00;102985.84;;;18.02;100.00
42591;BME280;28218;53.342;-6.216;2023-05-29T07:39:29;102985.03;;;17.93;100.00
42591;BME280;28218;53.342;-6.216;2023-05-29T07:41:58;102984.69;;;17.88;100.00
42591;BME280;28218;53.342;-6.216;2023-05-29T07:44:27;102994.31;;;17.81;100.00
42591;BME280;28218;53.342;-6.216;2023-05-29T07:46:56;102993.28;;;17.74;100.00
42591;BME280;28218;53.342;-6.216;2023-05-29T07:49:24;102998.38;;;17.67;100.00
42591;BME280;28218;53.342;-6.216;2023-05-29T07:51:53;102993.00;;;17.59;100.00
42591;BME280;28218;53.342;-6.216;2023-05-29T07:54:21;102987.78;;;17.49;100.00
42591;BME280;28218;53.342;-6.216;2023-05-29T07:56:51;102993.44;;;17.46;100.00
42591;BME280;28218;53.342;-6.216;2023-05-29T07:59:19;102999.09;;;17.43;100.00
42591;BME280;28218;53.342;-6.216;2023-05-29T08:01:47;103000.75;;;17.44;100.00
42591;BME280;28218;53.342;-6.216;2023-05-29T08:04:16;103000.38;;;17.39;100.00
42591;BME280;28218;53.342;-6.216;2023-05-29T08:06:45;103003.06;;;17.39;100.00
42591;BME280;28218;53.342;-6.216;2023-05-29T08:09:13;103009.91;;;17.42;100.00
42591;BME280;28218;53.342;-6.216;2023-05-29T08:11:42;103008.69;;;17.36;100.00
42591;BME280;28218;53.342;-6.216;2023-05-29T08:14:13;103019.34;;;17.36;100.00
42591;BME280;28218;53.342;-6.216;2023-05-29T08:16:42;103014.34;;;17.33;100.00
42591;BME280;28218;53.342;-6.216;2023-05-29T08:19:10;103010.13;;;17.22;100.00
42591;BME280;28218;53.342;-6.216;2023-05-29T08:21:38;103019.31;;;17.28;100.00
42591;BME280;28218;53.342;-6.216;2023-05-29T08:24:07;103028.69;;;17.32;100.00
42591;BME280;28218;53.342;-6.216;2023-05-29T08:26:35;103039.63;;;17.29;100.00
42591;BME280;28218;53.342;-6.216;2023-05-29T08:29:03;103036.69;;;17.40;100.00
42591;BME280;28218;53.342;-6.216;2023-05-29T08:31:33;103031.22;;;17.42;100.00
42591;BME280;28218;53.342;-6.216;2023-05-29T08:34:02;103041.38;;;17.38;100.00
42591;BME280;28218;53.342;-6.216;2023-05-29T08:36:31;103038.91;;;17.45;100.00
42591;BME280;28218;53.342;-6.216;2023-05-29T08:38:59;103040.97;;;17.51;100.00
42591;BME280;28218;53.342;-6.216;2023-05-29T08:41:37;103038.59;;;17.48;100.00
42591;BME280;28218;53.342;-6.216;2023-05-29T08:44:13;103049.44;;;17.54;100.00
42591;BME280;28218;53.342;-6.216;2023-05-29T08:46:44;103053.88;;;17.72;100.00
42591;BME280;28218;53.342;-6.216;2023-05-29T08:49:16;103052.31;;;17.79;100.00
42591;BME280;28218;53.342;-6.216;2023-05-29T08:51:54;103058.97;;;17.83;100.00
42591;BME280;28218;53.342;-6.216;2023-05-29T08:54:25;103055.00;;;17.87;100.00
42591;BME280;28218;53.342;-6.216;2023-05-29T08:56:55;103061.03;;;17.97;100.00
42591;BME280;28218;53.342;-6.216;2023-05-29T08:59:25;103061.91;;;17.98;100.00
42591;BME280;28218;53.342;-6.216;2023-05-29T09:01:56;103064.09;;;18.02;100.00
42591;BME280;28218;53.342;-6.216;2023-05-29T09:04:24;103069.03;;;17.89;100.00
42591;BME280;28218;53.342;-6.216;2023-05-29T09:06:52;103070.03;;;17.88;100.00
42591;BME280;28218;53.342;-6.216;2023-05-29T09:09:22;103070.50;;;17.92;100.00
42591;BME280;28218;53.342;-6.216;2023-05-29T09:11:50;103077.38;;;17.94;100.00
42591;BME280;28218;53.342;-6.216;2023-05-29T09:14:33;103080.34;;;17.91;100.00
42591;BME280;28218;53.342;-6.216;2023-05-29T09:17:04;103075.25;;;18.06;100.00
42591;BME280;28218;53.342;-6.216;2023-05-29T09:19:33;103077.41;;;18.02;100.00
42591;BME280;28218;53.342;-6.216;2023-05-29T09:22:04;103082.34;;;17.89;100.00
42591;BME280;28218;53.342;-6.216;2023-05-29T09:24:32;103087.69;;;17.97;100.00
42591;BME280;28218;53.342;-6.216;2023-05-29T09:27:02;103090.78;;;18.10;100.00
42591;BME280;28218;53.342;-6.216;2023-05-29T09:29:31;103089.28;;;18.08;100.00
42591;BME280;28218;53.342;-6.216;2023-05-29T09:32:00;103091.25;;;17.98;100.00
42591;BME280;28218;53.342;-6.216;2023-05-29T09:34:32;103088.59;;;18.06;100.00
42591;BME280;28218;53.342;-6.216;2023-05-29T09:37:04;103090.59;;;18.04;100.00
42591;BME280;28218;53.342;-6.216;2023-05-29T09:39:44;103088.78;;;18.12;100.00
42591;BME280;28218;53.342;-6.216;2023-05-29T09:42:13;103088.53;;;18.32;100.00
42591;BME280;28218;53.342;-6.216;2023-05-29T09:44:42;103094.03;;;18.38;100.00
42591;BME280;28218;53.342;-6.216;2023-05-29T09:47:14;103092.06;;;18.41;100.00
42591;BME280;28218;53.342;-6.216;2023-05-29T09:49:45;103099.91;;;18.42;100.00
42591;BME280;28218;53.342;-6.216;2023-05-29T09:52:14;103107.28;;;18.56;100.00
42591;BME280;28218;53.342;-6.216;2023-05-29T09:54:43;103098.13;;;18.67;100.00
42591;BME280;28218;53.342;-6.216;2023-05-29T09:57:14;103098.97;;;18.68;100.00
42591;BME280;28218;53.342;-6.216;2023-05-29T09:59:43;103092.44;;;18.62;100.00
42591;BME280;28218;53.342;-6.216;2023-05-29T10:02:14;103094.63;;;18.67;100.00
42591;BME280;28218;53.342;-6.216;2023-05-29T10:04:44;103097.00;;;18.70;100.00
42591;BME280;28218;53.342;-6.216;2023-05-29T10:07:17;103097.13;;;18.60;100.00
42591;BME280;28218;53.342;-6.216;2023-05-29T10:09:53;103097.25;;;18.50;100.00
42591;BME280;28218;53.342;-6.216;2023-05-29T10:12:23;103107.94;;;18.50;100.00
42591;BME280;28218;53.342;-6.216;2023-05-29T10:14:54;103104.41;;;18.42;100.00
42591;BME280;28218;53.342;-6.216;2023-05-29T10:17:28;103102.09;;;18.47;100.00
42591;BME280;28218;53.342;-6.216;2023-05-29T10:20:02;103100.88;;;18.33;100.00
42591;BME280;28218;53.342;-6.216;2023-05-29T10:22:34;103101.53;;;18.27;100.00
42591;BME280;28218;53.342;-6.216;2023-05-29T10:25:08;103108.84;;;18.25;100.00
42591;BME280;28218;53.342;-6.216;2023-05-29T10:27:37;103106.22;;;18.33;100.00
42591;BME280;28218;53.342;-6.216;2023-05-29T10:30:11;103099.72;;;18.35;100.00
42591;BME280;28218;53.342;-6.216;2023-05-29T10:32:53;103096.91;;;18.53;100.00
42591;BME280;28218;53.342;-6.216;2023-05-29T10:35:31;103101.13;;;18.64;100.00
42591;BME280;28218;53.342;-6.216;2023-05-29T10:38:11;103094.50;;;18.76;100.00
42591;BME280;28218;53.342;-6.216;2023-05-29T10:40:39;103103.03;;;18.80;100.00
42591;BME280;28218;53.342;-6.216;2023-05-29T10:43:07;103100.88;;;18.92;100.00
42591;BME280;28218;53.342;-6.216;2023-05-29T10:45:50;103099.19;;;18.90;100.00
42591;BME280;28218;53.342;-6.216;2023-05-29T10:48:38;103101.72;;;18.92;100.00
42591;BME280;28218;53.342;-6.216;2023-05-29T10:51:24;103112.41;;;18.92;100.00
42591;BME280;28218;53.342;-6.216;2023-05-29T10:53:53;103103.06;;;18.96;100.00
42591;BME280;28218;53.342;-6.216;2023-05-29T10:56:23;103108.06;;;18.99;100.00
42591;BME280;28218;53.342;-6.216;2023-05-29T10:58:55;103118.09;;;18.97;100.00
42591;BME280;28218;53.342;-6.216;2023-05-29T11:01:24;103115.25;;;19.07;100.00
42591;BME280;28218;53.342;-6.216;2023-05-29T11:03:54;103112.09;;;19.11;100.00
42591;BME280;28218;53.342;-6.216;2023-05-29T11:06:44;103108.56;;;19.19;100.00
42591;BME280;28218;53.342;-6.216;2023-05-29T11:09:29;103109.06;;;19.31;100.00
42591;BME280;28218;53.342;-6.216;2023-05-29T11:12:21;103103.72;;;19.39;100.00
42591;BME280;28218;53.342;-6.216;2023-05-29T11:15:05;103105.53;;;19.55;100.00
42591;BME280;28218;53.342;-6.216;2023-05-29T11:17:43;103104.88;;;19.53;100.00
42591;BME280;28218;53.342;-6.216;2023-05-29T11:20:25;103112.38;;;19.65;100.00
42591;BME280;28218;53.342;-6.216;2023-05-29T11:23:02;103113.38;;;19.73;100.00
42591;BME280;28218;53.342;-6.216;2023-05-29T11:25:33;103106.03;;;19.50;100.00
42591;BME280;28218;53.342;-6.216;2023-05-29T11:28:03;103109.22;;;19.54;100.00
42591;BME280;28218;53.342;-6.216;2023-05-29T11:30:45;103107.88;;;19.58;100.00
42591;BME280;28218;53.342;-6.216;2023-05-29T11:33:19;103104.38;;;19.41;100.00
42591;BME280;28218;53.342;-6.216;2023-05-29T11:35:55;103117.75;;;19.41;100.00
42591;BME280;28218;53.342;-6.216;2023-05-29T11:38:26;103120.59;;;19.39;100.00
42591;BME280;28218;53.342;-6.216;2023-05-29T11:40:54;103125.75;;;19.41;100.00
42591;BME280;28218;53.342;-6.216;2023-05-29T11:43:24;103123.41;;;19.46;100.00
42591;BME280;28218;53.342;-6.216;2023-05-29T11:45:52;103131.44;;;19.46;100.00
42591;BME280;28218;53.342;-6.216;2023-05-29T11:48:21;103134.13;;;19.54;100.00
42591;BME280;28218;53.342;-6.216;2023-05-29T11:50:50;103138.13;;;19.58;100.00
42591;BME280;28218;53.342;-6.216;2023-05-29T11:53:19;103133.31;;;19.62;100.00
42591;BME280;28218;53.342;-6.216;2023-05-29T11:55:49;103140.78;;;19.66;100.00
42591;BME280;28218;53.342;-6.216;2023-05-29T11:58:17;103147.84;;;19.68;100.00
42591;BME280;28218;53.342;-6.216;2023-05-29T12:00:47;103137.78;;;19.78;100.00
42591;BME280;28218;53.342;-6.216;2023-05-29T12:03:17;103143.81;;;19.72;100.00
42591;BME280;28218;53.342;-6.216;2023-05-29T12:05:47;103152.63;;;19.88;100.00
42591;BME280;28218;53.342;-6.216;2023-05-29T12:08:21;103146.28;;;19.89;100.00
42591;BME280;28218;53.342;-6.216;2023-05-29T12:10:52;103140.97;;;19.81;100.00
42591;BME280;28218;53.342;-6.216;2023-05-29T12:13:22;103144.81;;;19.71;100.00
42591;BME280;28218;53.342;-6.216;2023-05-29T12:15:53;103139.50;;;19.62;100.00
42591;BME280;28218;53.342;-6.216;2023-05-29T12:18:23;103138.47;;;19.63;100.00
42591;BME280;28218;53.342;-6.216;2023-05-29T12:20:57;103139.13;;;19.74;100.00
42591;BME280;28218;53.342;-6.216;2023-05-29T12:23:25;103135.13;;;19.78;100.00
42591;BME280;28218;53.342;-6.216;2023-05-29T12:25:55;103147.47;;;19.87;100.00
42591;BME280;28218;53.342;-6.216;2023-05-29T12:28:25;103136.13;;;19.77;100.00
42591;BME280;28218;53.342;-6.216;2023-05-29T12:30:58;103136.13;;;19.77;100.00
42591;BME280;28218;53.342;-6.216;2023-05-29T12:33:30;103142.25;;;19.85;100.00
42591;BME280;28218;53.342;-6.216;2023-05-29T12:36:04;103144.72;;;20.03;100.00
42591;BME280;28218;53.342;-6.216;2023-05-29T12:38:33;103133.34;;;20.09;100.00
42591;BME280;28218;53.342;-6.216;2023-05-29T12:41:04;103139.84;;;20.23;100.00
42591;BME280;28218;53.342;-6.216;2023-05-29T12:43:33;103142.13;;;20.34;100.00
42591;BME280;28218;53.342;-6.216;2023-05-29T12:46:02;103125.19;;;20.42;100.00